createdAt,value
2023-09-10T00:04:49.021Z,7.20
2023-09-10T00:19:36.064Z,7.80
2023-09-10T00:22:20.434Z,7.00
2023-09-10T00:25:07.594Z,7.00
2023-09-10T00:30:43.985Z,6.70
2023-09-10T00:33:19.303Z,7.00
2023-09-10T00:36:06.894Z,6.90
2023-09-10T00:41:42.797Z,6.60
2023-09-10T00:47:01.103Z,6.70
2023-09-10T00:49:31.955Z,6.60
2023-09-10T00:52:07.087Z,6.40
2023-09-10T00:54:39.999Z,6.60
2023-09-10T00:59:56.214Z,6.60
2023-09-10T01:02:25.967Z,6.60
2023-09-10T01:04:57.241Z,6.70
2023-09-10T01:07:29.972Z,6.40
2023-09-10T01:09:59.904Z,7.10
2023-09-10T01:12:50.841Z,7.00
2023-09-10T01:15:23.351Z,7.30
2023-09-10T01:21:09.096Z,6.90
2023-09-10T01:27:33.577Z,6.90
2023-09-10T01:33:37.926Z,7.30
2023-09-10T01:36:20.040Z,7.60
2023-09-10T01:39:12.121Z,6.50
2023-09-10T01:41:55.287Z,7.20
2023-09-10T01:44:45.888Z,6.60
2023-09-10T01:47:21.007Z,6.90
2023-09-10T01:49:53.740Z,7.00
2023-09-10T01:52:26.435Z,6.50
2023-09-10T01:54:56.871Z,6.80
2023-09-10T01:57:27.837Z,6.30
2023-09-10T02:00:13.262Z,6.70
2023-09-10T02:02:44.943Z,7.40
2023-09-10T02:05:16.116Z,6.60
2023-09-10T02:07:53.166Z,6.80
2023-09-10T02:10:22.956Z,6.80
2023-09-10T02:12:53.652Z,6.60
2023-09-10T02:15:23.143Z,6.40
2023-09-10T02:17:55.026Z,6.70
2023-09-10T02:20:24.847Z,6.30
2023-09-10T02:22:54.544Z,6.50
2023-09-10T02:25:24.199Z,6.50
2023-09-10T02:27:53.052Z,6.80
2023-09-10T02:30:22.194Z,6.60
2023-09-10T02:32:53.426Z,6.50
2023-09-10T02:35:23.936Z,6.70
2023-09-10T02:37:53.142Z,6.60
2023-09-10T02:40:23.660Z,6.60
2023-09-10T02:42:54.183Z,6.30
2023-09-10T02:45:33.844Z,6.70
2023-09-10T02:48:03.081Z,6.50
2023-09-10T02:50:32.117Z,6.50
2023-09-10T02:53:01.900Z,7.10
2023-09-10T02:55:30.935Z,6.80
2023-09-10T02:57:59.668Z,6.20
2023-09-10T03:00:29.424Z,6.50
2023-09-10T03:02:59.321Z,6.20
2023-09-10T03:05:33.209Z,6.60
2023-09-10T03:08:03.619Z,6.40
2023-09-10T03:10:33.989Z,6.70
2023-09-10T03:13:03.425Z,6.00
2023-09-10T03:15:33.371Z,6.80
2023-09-10T03:18:03.273Z,6.70
2023-09-10T03:20:33.335Z,6.20
2023-09-10T03:23:03.664Z,6.80
2023-09-10T03:25:37.169Z,6.30
2023-09-10T03:28:08.503Z,6.50
2023-09-10T03:30:38.417Z,6.50
2023-09-10T03:33:07.663Z,6.50
2023-09-10T03:35:36.987Z,6.20
2023-09-10T03:38:07.003Z,6.70
2023-09-10T03:40:37.399Z,6.30
2023-09-10T03:43:08.150Z,5.70
2023-09-10T03:45:37.805Z,6.90
2023-09-10T03:48:07.316Z,6.30
2023-09-10T03:50:37.813Z,6.40
2023-09-10T03:53:08.596Z,6.30
2023-09-10T03:55:37.975Z,6.10
2023-09-10T03:58:08.307Z,5.70
2023-09-10T04:00:39.150Z,12.10
2023-09-10T04:03:09.885Z,7.20
2023-09-10T04:05:41.716Z,6.50
2023-09-10T04:08:11.613Z,6.00
2023-09-10T04:10:42.340Z,6.40
2023-09-10T04:13:11.835Z,6.60
2023-09-10T04:15:41.053Z,6.50
2023-09-10T04:18:10.665Z,5.40
2023-09-10T04:20:40.830Z,5.80
2023-09-10T04:23:10.213Z,6.50
2023-09-10T04:25:40.053Z,6.50
2023-09-10T04:28:10.213Z,6.20
2023-09-10T04:30:41.235Z,5.90
2023-09-10T04:33:10.423Z,6.50
2023-09-10T04:35:50.343Z,6.50
2023-09-10T04:38:21.867Z,6.40
2023-09-10T04:40:52.483Z,6.40
2023-09-10T04:43:22.089Z,6.30
2023-09-10T04:45:50.841Z,6.50
2023-09-10T04:48:20.287Z,6.50
2023-09-10T04:50:50.068Z,6.50
2023-09-10T04:53:19.803Z,6.80
2023-09-10T04:55:56.767Z,6.60
2023-09-10T04:58:28.102Z,6.00
2023-09-10T05:00:57.844Z,6.80
2023-09-10T05:03:28.260Z,6.70
2023-09-10T05:06:02.292Z,6.10
2023-09-10T05:08:31.574Z,6.50
2023-09-10T05:11:02.835Z,6.30
2023-09-10T05:13:34.818Z,6.80
2023-09-10T05:16:04.441Z,6.70
2023-09-10T05:18:35.155Z,6.90
2023-09-10T05:21:05.484Z,6.90
2023-09-10T05:23:36.938Z,7.00
2023-09-10T05:26:15.777Z,6.60
2023-09-10T05:28:50.173Z,6.70
2023-09-10T05:31:33.627Z,6.30
2023-09-10T05:34:05.606Z,6.80
2023-09-10T05:36:41.820Z,7.00
2023-09-10T05:39:38.899Z,6.80
2023-09-10T05:42:27.474Z,7.00
2023-09-10T05:45:10.559Z,6.30
2023-09-10T05:47:46.614Z,6.70
2023-09-10T05:50:32.514Z,6.40
2023-09-10T05:55:58.754Z,6.90
2023-09-10T05:58:49.670Z,6.80
2023-09-10T06:01:42.683Z,7.00
2023-09-10T06:04:52.338Z,6.60
2023-09-10T06:11:23.341Z,6.40
2023-09-10T06:14:05.698Z,6.90
2023-09-10T06:20:14.339Z,6.60
2023-09-10T06:22:59.856Z,6.90
2023-09-10T06:25:43.735Z,6.60
2023-09-10T06:32:03.304Z,6.90
2023-09-10T06:34:59.091Z,6.40
2023-09-10T06:37:32.713Z,6.60
2023-09-10T06:40:03.037Z,6.40
2023-09-10T06:42:33.242Z,6.90
2023-09-10T06:45:11.372Z,6.00
2023-09-10T06:47:40.090Z,6.50
2023-09-10T06:50:09.107Z,6.60
2023-09-10T06:52:38.341Z,6.00
2023-09-10T06:55:07.412Z,6.50
2023-09-10T06:57:36.535Z,6.30
2023-09-10T07:00:05.423Z,5.50
2023-09-10T07:02:34.510Z,6.00
2023-09-10T07:05:04.243Z,6.20
2023-09-10T07:07:32.806Z,6.60
2023-09-10T07:10:01.869Z,6.10
2023-09-10T07:12:31.003Z,5.80
2023-09-10T07:14:59.680Z,5.70
2023-09-10T07:17:28.911Z,5.70
2023-09-10T07:19:57.656Z,5.00
2023-09-10T07:22:26.687Z,5.20
2023-09-10T07:24:55.786Z,5.30
2023-09-10T07:27:24.260Z,5.20
2023-09-10T07:29:52.855Z,5.40
2023-09-10T07:32:21.409Z,5.40
2023-09-10T07:34:50.450Z,5.10
2023-09-10T07:37:19.658Z,5.00
2023-09-10T07:39:48.932Z,5.20
2023-09-10T07:42:17.545Z,5.60
2023-09-10T07:44:46.070Z,5.10
2023-09-10T07:47:14.819Z,5.30
2023-09-10T07:49:43.964Z,5.50
2023-09-10T07:52:13.001Z,4.30
2023-09-10T07:54:43.741Z,5.10
2023-09-10T07:57:14.998Z,5.50
2023-09-10T07:59:45.902Z,4.80
2023-09-10T08:02:15.074Z,4.00
2023-09-10T08:04:45.903Z,4.90
2023-09-10T08:07:16.579Z,5.00
2023-09-10T08:09:45.784Z,5.40
2023-09-10T08:12:14.945Z,5.20
2023-09-10T08:14:44.226Z,5.20
2023-09-10T08:17:13.923Z,4.60
2023-09-10T08:19:43.866Z,4.70
2023-09-10T08:22:12.976Z,4.90
2023-09-10T08:24:42.584Z,4.50
2023-09-10T08:27:13.951Z,3.90
2023-09-10T08:29:43.050Z,4.70
2023-09-10T08:32:14.429Z,4.30
2023-09-10T08:34:45.581Z,4.70
2023-09-10T08:37:14.517Z,4.30
2023-09-10T08:39:43.291Z,4.50
2023-09-10T08:42:27.168Z,4.00
2023-09-10T08:44:58.256Z,4.20
2023-09-10T08:47:34.533Z,4.50
2023-09-10T08:50:13.309Z,4.40
2023-09-10T08:52:49.911Z,4.20
2023-09-10T08:55:20.957Z,4.10
2023-09-10T08:57:52.876Z,4.40
2023-09-10T09:00:23.716Z,4.30
2023-09-10T09:02:54.793Z,4.00
2023-09-10T09:05:28.765Z,3.60
2023-09-10T09:08:05.570Z,3.90
2023-09-10T09:10:35.384Z,4.20
2023-09-10T09:13:11.424Z,3.80
2023-09-10T09:15:41.093Z,3.50
2023-09-10T09:18:15.954Z,2.30
2023-09-10T09:20:52.354Z,1.80
2023-09-10T09:23:33.797Z,2.70
2023-09-10T09:26:03.668Z,3.20
2023-09-10T09:28:35.255Z,2.10
2023-09-10T09:31:12.106Z,2.70
2023-09-10T09:33:46.756Z,2.70
2023-09-10T09:36:15.562Z,2.40
2023-09-10T09:38:48.399Z,2.30
2023-09-10T09:41:18.263Z,2.20
2023-09-10T09:43:47.713Z,2.80
2023-09-10T09:46:17.823Z,3.20
2023-09-10T09:48:48.120Z,2.60
2023-09-10T09:51:18.058Z,2.40
2023-09-10T09:53:47.731Z,2.60
2023-09-10T09:56:19.105Z,2.20
2023-09-10T09:58:47.912Z,2.20
2023-09-10T10:01:17.294Z,2.10
2023-09-10T10:03:47.014Z,2.20
2023-09-10T10:06:17.966Z,2.90
2023-09-10T10:08:51.625Z,2.70
2023-09-10T10:11:33.788Z,3.20
2023-09-10T10:14:05.065Z,3.10
2023-09-10T10:16:34.597Z,3.00
2023-09-10T10:19:05.174Z,3.00
2023-09-10T10:21:34.111Z,3.00
2023-09-10T10:24:04.579Z,3.20
2023-09-10T10:26:35.439Z,2.90
2023-09-10T10:29:05.628Z,2.80
2023-09-10T10:31:38.346Z,2.50
2023-09-10T10:34:10.890Z,1.90
2023-09-10T10:37:04.749Z,2.60
2023-09-10T10:39:43.180Z,2.30
2023-09-10T10:42:17.436Z,2.00
2023-09-10T10:44:47.205Z,1.80
2023-09-10T10:47:23.572Z,2.80
2023-09-10T10:49:57.780Z,1.60
2023-09-10T10:52:32.190Z,1.90
2023-09-10T10:55:01.563Z,2.70
2023-09-10T10:57:31.227Z,2.90
2023-09-10T11:00:02.909Z,2.50
2023-09-10T11:02:32.577Z,1.80
2023-09-10T11:05:06.173Z,2.20
2023-09-10T11:07:36.612Z,2.10
2023-09-10T11:10:28.773Z,2.00
2023-09-10T11:13:07.782Z,1.80
2023-09-10T11:15:37.747Z,1.70
2023-09-10T11:18:38.776Z,2.00
2023-09-10T11:21:16.725Z,2.70
2023-09-10T11:23:53.265Z,2.20
2023-09-10T11:26:21.805Z,1.90
2023-09-10T11:28:56.200Z,2.40
2023-09-10T11:31:40.469Z,2.40
2023-09-10T11:34:21.694Z,1.60
2023-09-10T11:37:03.684Z,2.10
2023-09-10T11:39:34.210Z,1.80
2023-09-10T11:42:06.420Z,2.20
2023-09-10T11:44:36.734Z,2.40
2023-09-10T11:47:07.087Z,2.10
2023-09-10T11:49:35.891Z,2.20
2023-09-10T11:52:05.295Z,1.80
2023-09-10T11:54:35.103Z,2.10
2023-09-10T11:57:05.093Z,2.70
2023-09-10T11:59:34.099Z,2.10
2023-09-10T12:02:04.825Z,1.80
2023-09-10T12:04:35.634Z,2.40
2023-09-10T12:07:05.568Z,2.50
2023-09-10T12:09:34.575Z,2.10
2023-09-10T12:12:16.412Z,2.30
2023-09-10T12:14:45.279Z,2.40
2023-09-10T12:17:14.259Z,2.40
2023-09-10T12:19:44.575Z,2.00
2023-09-10T12:22:16.252Z,2.00
2023-09-10T12:24:46.223Z,2.20
2023-09-10T12:27:14.878Z,2.30
2023-09-10T12:29:44.881Z,2.50
2023-09-10T12:32:14.401Z,2.30
2023-09-10T12:34:44.737Z,2.20
2023-09-10T12:37:16.816Z,1.90
2023-09-10T12:39:47.206Z,2.10
2023-09-10T12:42:16.689Z,2.40
2023-09-10T12:44:46.362Z,2.40
2023-09-10T12:47:15.694Z,1.90
2023-09-10T12:49:47.164Z,2.50
2023-09-10T12:52:17.129Z,2.00
2023-09-10T12:54:45.967Z,2.10
2023-09-10T12:57:15.053Z,2.10
2023-09-10T12:59:44.368Z,2.30
2023-09-10T13:02:13.157Z,2.00
2023-09-10T13:04:41.885Z,2.10
2023-09-10T13:07:14.166Z,2.20
2023-09-10T13:09:42.929Z,2.20
2023-09-10T13:12:12.293Z,2.30
2023-09-10T13:14:41.425Z,2.00
2023-09-10T13:17:12.075Z,1.90
2023-09-10T13:19:41.218Z,2.40
2023-09-10T13:22:09.945Z,2.00
2023-09-10T13:24:38.802Z,2.10
2023-09-10T13:27:08.292Z,2.10
2023-09-10T13:29:37.154Z,1.70
2023-09-10T13:32:07.375Z,1.90
2023-09-10T13:34:36.339Z,1.90
2023-09-10T13:37:05.189Z,2.20
2023-09-10T13:39:35.471Z,1.90
2023-09-10T13:42:05.277Z,1.90
2023-09-10T13:44:34.764Z,1.90
2023-09-10T13:47:05.049Z,2.30
2023-09-10T13:49:33.782Z,2.10
2023-09-10T13:52:03.105Z,1.90
2023-09-10T13:54:31.768Z,2.00
2023-09-10T13:57:00.354Z,1.90
2023-09-10T13:59:29.198Z,2.20
2023-09-10T14:01:59.303Z,2.10
2023-09-10T14:04:28.012Z,2.10
2023-09-10T14:06:56.721Z,1.90
2023-09-10T14:09:27.589Z,2.20
2023-09-10T14:11:56.412Z,1.80
2023-09-10T14:14:26.488Z,1.80
2023-09-10T14:16:55.139Z,1.90
2023-09-10T14:19:23.693Z,2.30
2023-09-10T14:21:52.451Z,2.00
2023-09-10T14:24:21.117Z,2.20
2023-09-10T14:26:49.787Z,2.50
2023-09-10T14:29:19.174Z,2.10
2023-09-10T14:31:48.026Z,2.00
2023-09-10T14:34:17.413Z,1.90
2023-09-10T14:36:46.161Z,1.90
2023-09-10T14:39:15.900Z,2.00
2023-09-10T14:41:44.977Z,2.00
2023-09-10T14:44:14.094Z,2.10
2023-09-10T14:46:42.901Z,2.00
2023-09-10T14:49:11.588Z,2.20
2023-09-10T14:51:40.255Z,2.20
2023-09-10T14:54:09.584Z,2.20
2023-09-10T14:56:38.466Z,2.00
2023-09-10T14:59:07.700Z,2.20
2023-09-10T15:01:37.059Z,2.10
2023-09-10T15:04:06.340Z,2.10
2023-09-10T15:06:35.080Z,2.30
2023-09-10T15:09:05.332Z,2.10
2023-09-10T15:11:34.544Z,2.10
2023-09-10T15:14:03.309Z,1.90
2023-09-10T15:16:32.641Z,2.20
2023-09-10T15:19:01.817Z,2.20
2023-09-10T15:21:30.370Z,2.10
2023-09-10T15:24:00.205Z,2.30
2023-09-10T15:26:29.039Z,2.20
2023-09-10T15:28:57.780Z,2.20
2023-09-10T15:31:27.199Z,2.20
2023-09-10T15:33:56.311Z,2.00
2023-09-10T15:36:25.416Z,2.20
2023-09-10T15:38:54.477Z,2.10
2023-09-10T15:41:23.200Z,2.30
2023-09-10T15:43:52.478Z,2.10
2023-09-10T15:46:21.494Z,1.80
2023-09-10T15:48:50.729Z,2.10
2023-09-10T15:51:20.382Z,2.00
2023-09-10T15:53:49.468Z,2.10
2023-09-10T15:56:18.108Z,2.10
2023-09-10T15:58:47.377Z,2.00
2023-09-10T16:01:16.149Z,1.90
2023-09-10T16:03:46.249Z,2.00
2023-09-10T16:06:15.215Z,2.10
2023-09-10T16:08:43.993Z,2.30
2023-09-10T16:11:13.702Z,2.10
2023-09-10T16:13:44.560Z,2.10
2023-09-10T16:16:13.122Z,2.00
2023-09-10T16:18:42.358Z,2.10
2023-09-10T16:21:11.032Z,2.10
2023-09-10T16:23:40.051Z,3.30
2023-09-10T16:26:09.090Z,2.60
2023-09-10T16:28:38.418Z,2.10
2023-09-10T16:31:11.267Z,2.10
2023-09-10T16:33:40.288Z,2.40
2023-09-10T16:36:09.316Z,2.20
2023-09-10T16:38:38.016Z,2.50
2023-09-10T16:41:06.680Z,2.30
2023-09-10T16:43:35.286Z,2.50
2023-09-10T16:46:04.468Z,2.30
2023-09-10T16:48:33.167Z,2.20
2023-09-10T16:51:01.851Z,2.40
2023-09-10T16:53:30.640Z,2.40
2023-09-10T16:55:59.936Z,2.30
2023-09-10T16:58:28.644Z,2.70
2023-09-10T17:00:57.454Z,2.40
2023-09-10T17:03:27.911Z,2.50
2023-09-10T17:05:57.981Z,2.60
2023-09-10T17:08:27.246Z,2.20
2023-09-10T17:10:58.320Z,2.60
2023-09-10T17:13:27.161Z,2.70
2023-09-10T17:16:09.056Z,2.50
2023-09-10T17:18:39.281Z,2.90
2023-09-10T17:21:10.660Z,3.50
2023-09-10T17:23:39.467Z,5.60
2023-09-10T17:26:12.159Z,4.70
2023-09-10T17:28:41.808Z,5.00
2023-09-10T17:31:10.469Z,5.10
2023-09-10T17:33:39.417Z,4.60
2023-09-10T17:36:09.215Z,4.90
2023-09-10T17:38:39.043Z,4.60
2023-09-10T17:41:08.779Z,5.70
2023-09-10T17:43:38.186Z,5.60
2023-09-10T17:46:08.263Z,5.30
2023-09-10T17:48:38.191Z,4.90
2023-09-10T17:51:08.152Z,4.10
2023-09-10T17:53:37.351Z,3.60
2023-09-10T17:56:07.821Z,4.20
2023-09-10T17:58:38.726Z,3.50
2023-09-10T18:01:08.720Z,3.50
2023-09-10T18:03:39.395Z,2.80
2023-09-10T18:06:09.388Z,3.30
2023-09-10T18:08:38.397Z,3.10
2023-09-10T18:11:08.372Z,3.20
2023-09-10T18:13:40.674Z,3.30
2023-09-10T18:16:10.734Z,3.30
2023-09-10T18:18:40.417Z,2.70
2023-09-10T18:21:11.422Z,3.00
2023-09-10T18:23:40.674Z,3.20
2023-09-10T18:26:11.535Z,2.70
2023-09-10T18:28:40.797Z,3.40
2023-09-10T18:31:09.515Z,3.70
2023-09-10T18:33:39.234Z,3.60
2023-09-10T18:36:09.041Z,3.50
2023-09-10T18:38:43.370Z,3.60
2023-09-10T18:41:12.081Z,3.70
2023-09-10T18:43:41.131Z,3.40
2023-09-10T18:46:10.008Z,3.70
2023-09-10T18:48:39.443Z,3.60
2023-09-10T18:51:08.611Z,3.30
2023-09-10T18:53:37.291Z,3.70
2023-09-10T18:56:06.449Z,3.70
2023-09-10T18:58:35.562Z,3.20
2023-09-10T19:01:04.314Z,3.30
2023-09-10T19:03:33.902Z,3.00
2023-09-10T19:06:03.268Z,3.20
2023-09-10T19:08:32.522Z,3.30
2023-09-10T19:11:01.209Z,3.10
2023-09-10T19:13:30.158Z,2.90
2023-09-10T19:16:01.997Z,3.10
2023-09-10T19:18:31.524Z,2.90
2023-09-10T19:21:00.680Z,2.80
2023-09-10T19:23:29.512Z,3.20
2023-09-10T19:25:58.232Z,3.00
2023-09-10T19:28:27.209Z,2.90
2023-09-10T19:30:56.158Z,3.10
2023-09-10T19:33:25.415Z,3.20
2023-09-10T19:35:54.128Z,3.20
2023-09-10T19:38:24.035Z,3.50
2023-09-10T19:40:53.312Z,3.10
2023-09-10T19:43:23.195Z,3.20
2023-09-10T19:45:56.194Z,3.20
2023-09-10T19:48:25.311Z,3.50
2023-09-10T19:51:03.038Z,3.30
2023-09-10T19:53:31.770Z,2.80
2023-09-10T19:56:01.907Z,3.50
2023-09-10T19:58:34.125Z,3.70
2023-09-10T20:01:02.803Z,3.70
2023-09-10T20:03:32.415Z,3.30
2023-09-10T20:06:01.103Z,3.40
2023-09-10T20:08:29.799Z,3.30
2023-09-10T20:10:58.504Z,3.60
2023-09-10T20:13:27.052Z,3.30
2023-09-10T20:15:55.552Z,3.10
2023-09-10T20:18:24.236Z,2.90
2023-09-10T20:20:52.952Z,3.30
2023-09-10T20:23:21.711Z,3.40
2023-09-10T20:25:51.763Z,3.30
2023-09-10T20:28:20.327Z,3.30
2023-09-10T20:30:48.897Z,3.10
2023-09-10T20:33:17.713Z,3.40
2023-09-10T20:35:46.762Z,3.10
2023-09-10T20:38:15.447Z,3.30
2023-09-10T20:40:44.178Z,3.10
2023-09-10T20:43:13.092Z,3.20
2023-09-10T20:45:41.696Z,3.20
2023-09-10T20:48:10.537Z,3.60
2023-09-10T20:50:39.174Z,3.60
2023-09-10T20:53:07.939Z,3.80
2023-09-10T20:55:36.529Z,3.40
2023-09-10T20:58:05.344Z,3.50
2023-09-10T21:00:33.961Z,3.50
2023-09-10T21:03:13.722Z,3.20
2023-09-10T21:05:50.922Z,3.40
2023-09-10T21:08:19.921Z,3.80
2023-09-10T21:10:48.583Z,3.60
2023-09-10T21:13:17.192Z,3.40
2023-09-10T21:15:45.867Z,3.10
2023-09-10T21:18:16.139Z,3.60
2023-09-10T21:20:44.964Z,3.00
2023-09-10T21:23:14.064Z,3.60
2023-09-10T21:25:44.645Z,3.00
2023-09-10T21:28:14.260Z,3.30
2023-09-10T21:30:42.948Z,3.30
2023-09-10T21:33:11.628Z,3.10
2023-09-10T21:35:47.889Z,3.50
2023-09-10T21:38:24.709Z,3.90
2023-09-10T21:41:02.238Z,3.90
2023-09-10T21:44:13.571Z,3.80
2023-09-10T21:47:44.384Z,3.70
2023-09-10T21:50:41.472Z,3.30
2023-09-10T21:53:13.054Z,3.20
2023-09-10T21:56:58.967Z,3.70
2023-09-10T22:00:17.111Z,3.70
2023-09-10T22:11:32.301Z,3.70
2023-09-10T22:15:06.814Z,3.70
2023-09-10T22:17:48.334Z,3.40
2023-09-10T22:41:15.706Z,3.60
2023-09-10T22:51:03.169Z,4.00
2023-09-10T23:54:03.500Z,3.40
